Time;durP1;ratioP1;P1;durP2;ratioP2;P2;SDS_P1;SDS_P2;PMS_P1;PMS_P2;Temp;Humidity;BMP_temperature;BMP_pressure;BME280_temperature;BME280_humidity;BME280_pressure;Samples;Min_cycle;Max_cycle;Signal;HPM_P1;HPM_P2
2022/08/07 00:00:37;;;;;;;8.37;6.63;;;14.10;99.90;;;;;;5016458;28;20240;-54
2022/08/07 00:03:08;;;;;;;8.57;6.87;;;14.10;99.90;;;;;;5014577;28;20675;-55
2022/08/07 00:05:37;;;;;;;7.77;6.57;;;14.00;99.90;;;;;;5031242;28;20240;-54
2022/08/07 00:08:05;;;;;;;7.23;6.53;;;14.00;99.90;;;;;;5033962;28;20275;-54
2022/08/07 00:10:35;;;;;;;7.80;6.83;;;14.00;99.90;;;;;;5034028;28;20221;-54
2022/08/07 00:13:23;;;;;;;8.00;6.27;;;13.90;99.90;;;;;;5027995;28;20228;-54
2022/08/07 00:15:55;;;;;;;7.17;6.40;;;14.00;99.90;;;;;;5031583;28;20236;-54
2022/08/07 00:18:26;;;;;;;6.97;6.27;;;13.90;99.90;;;;;;5033811;28;20228;-54
2022/08/07 00:20:55;;;;;;;7.33;6.60;;;13.90;99.90;;;;;;5033741;28;20235;-55
2022/08/07 00:23:29;;;;;;;8.17;7.27;;;13.90;99.90;;;;;;5027385;28;20239;-55
2022/08/07 00:25:58;;;;;;;7.63;6.53;;;13.90;99.90;;;;;;5013987;28;20245;-54
2022/08/07 00:28:42;;;;;;;6.97;6.27;;;13.80;99.90;;;;;;5015032;28;20762;-55
2022/08/07 00:31:26;;;;;;;6.90;6.20;;;13.80;99.90;;;;;;5033026;28;20290;-54
2022/08/07 00:34:08;;;;;;;7.23;6.53;;;13.80;99.90;;;;;;5032156;28;20652;-55
2022/08/07 00:36:37;;;;;;;7.10;6.40;;;13.70;99.90;;;;;;5032153;28;20323;-54
2022/08/07 00:39:10;;;;;;;7.43;6.50;;;13.70;99.90;;;;;;5033429;28;20221;-54
2022/08/07 00:41:49;;;;;;;7.37;6.17;;;13.70;99.90;;;;;;5032195;28;20236;-55
2022/08/07 00:44:28;;;;;;;7.80;6.80;;;13.70;99.90;;;;;;5027625;28;20231;-54
2022/08/07 00:46:58;;;;;;;7.63;6.53;;;13.60;99.90;;;;;;5033364;28;20782;-54
2022/08/07 00:49:26;;;;;;;6.83;5.97;;;13.50;99.90;;;;;;5032027;28;20233;-54
2022/08/07 00:52:16;;;;;;;7.90;5.93;;;13.50;99.90;;;;;;5033389;28;20686;-54
2022/08/07 00:54:47;;;;;;;7.77;6.23;;;13.50;99.90;;;;;;5014985;28;20349;-54
2022/08/07 00:57:22;;;;;;;7.07;6.17;;;13.50;99.90;;;;;;5013559;28;20229;-54
2022/08/07 00:59:52;;;;;;;7.67;5.97;;;13.50;99.90;;;;;;5013474;28;20636;-55
2022/08/07 01:02:23;;;;;;;8.00;6.10;;;13.40;99.90;;;;;;5015905;28;20584;-54
2022/08/07 01:04:56;;;;;;;7.13;6.00;;;13.40;99.90;;;;;;5031763;28;20233;-54
2022/08/07 01:07:27;;;;;;;8.53;6.77;;;13.40;99.90;;;;;;5032993;28;20589;-54
2022/08/07 01:09:57;;;;;;;7.40;6.37;;;13.40;99.90;;;;;;5033050;28;20239;-54
2022/08/07 01:12:34;;;;;;;7.30;6.53;;;13.40;99.90;;;;;;5032774;28;20259;-55
2022/08/07 01:15:04;;;;;;;7.63;6.73;;;13.30;99.90;;;;;;5023475;28;20255;-54
2022/08/07 01:17:34;;;;;;;7.90;6.63;;;13.30;99.90;;;;;;5032314;28;20648;-55
2022/08/07 01:20:11;;;;;;;7.23;6.50;;;13.30;99.90;;;;;;5033349;28;20220;-54
2022/08/07 01:22:46;;;;;;;6.93;6.17;;;13.20;99.90;;;;;;5031350;28;20373;-54
2022/08/07 01:25:34;;;;;;;6.40;5.57;;;13.20;99.90;;;;;;5012091;28;20235;-55
2022/08/07 01:28:24;;;;;;;5.67;5.10;;;13.20;99.90;;;;;;5012012;28;20247;-55
2022/08/07 01:30:56;;;;;;;6.73;5.87;;;13.20;99.90;;;;;;5023758;28;20323;-54
2022/08/07 01:33:26;;;;;;;6.40;5.60;;;13.20;99.90;;;;;;5031423;28;20600;-54
2022/08/07 01:36:15;;;;;;;6.57;5.77;;;13.20;99.90;;;;;;5031187;28;20278;-55
2022/08/07 01:38:47;;;;;;;6.47;5.70;;;13.10;99.90;;;;;;5032902;28;20576;-55
2022/08/07 01:41:23;;;;;;;7.13;6.40;;;13.10;99.90;;;;;;5031489;28;20227;-56
2022/08/07 01:43:57;;;;;;;7.43;6.63;;;13.10;99.90;;;;;;5023107;28;20256;-54
2022/08/07 01:46:26;;;;;;;7.40;6.70;;;13.10;99.90;;;;;;5032348;28;20723;-54
2022/08/07 01:48:58;;;;;;;8.50;6.67;;;13.10;99.90;;;;;;5031482;28;20235;-55
2022/08/07 01:51:27;;;;;;;7.83;6.73;;;13.00;99.90;;;;;;5031124;28;20587;-54
2022/08/07 01:54:20;;;;;;;6.80;6.17;;;13.00;99.90;;;;;;5018841;28;20576;-55
2022/08/07 01:57:09;;;;;;;7.13;6.07;;;13.00;99.90;;;;;;5011692;28;20251;-54
2022/08/07 01:59:56;;;;;;;9.33;7.00;;;12.90;99.90;;;;;;5015066;28;20290;-55
2022/08/07 02:02:31;;;;;;;7.13;6.20;;;12.90;99.90;;;;;;5030873;28;20267;-54
2022/08/07 02:05:25;;;;;;;7.67;6.80;;;12.90;99.90;;;;;;5032756;28;20227;-55
2022/08/07 02:08:20;;;;;;;7.47;6.57;;;12.90;99.90;;;;;;5031395;28;20227;-55
2022/08/07 02:10:55;;;;;;;8.27;6.53;;;12.90;99.90;;;;;;5032600;28;20259;-54
2022/08/07 02:13:31;;;;;;;6.70;6.00;;;12.90;99.90;;;;;;5025055;28;20232;-55
2022/08/07 02:16:22;;;;;;;7.10;6.07;;;12.80;99.90;;;;;;5031024;28;20251;-55
2022/08/07 02:19:02;;;;;;;7.73;6.50;;;12.80;99.90;;;;;;5032880;28;20707;-55
2022/08/07 02:21:54;;;;;;;8.43;7.10;;;12.80;99.90;;;;;;5031201;28;20679;-55
2022/08/07 02:24:26;;;;;;;9.27;7.23;;;12.70;99.90;;;;;;5016965;28;20232;-54
2022/08/07 02:27:00;;;;;;;8.13;6.77;;;12.70;99.90;;;;;;5012763;28;20588;-54
2022/08/07 02:29:33;;;;;;;7.73;6.50;;;12.80;99.90;;;;;;5021634;28;20227;-54
2022/08/07 02:32:19;;;;;;;7.33;6.10;;;12.70;99.90;;;;;;5030311;28;20239;-55
2022/08/07 02:34:56;;;;;;;8.03;7.03;;;12.70;99.90;;;;;;5030898;28;20708;-55
2022/08/07 02:37:28;;;;;;;6.63;5.93;;;12.60;99.90;;;;;;5033724;28;20243;-54
2022/08/07 02:40:08;;;;;;;6.67;5.67;;;12.60;99.90;;;;;;5034737;28;20285;-54
2022/08/07 02:43:01;;;;;;;7.23;5.30;;;12.60;99.90;;;;;;5034191;28;20595;-55
2022/08/07 02:45:38;;;;;;;6.63;5.33;;;12.50;99.90;;;;;;5019373;28;20326;-55
2022/08/07 02:48:26;;;;;;;6.20;5.40;;;12.50;99.90;;;;;;5015761;28;20308;-55
2022/08/07 02:50:59;;;;;;;8.27;5.77;;;12.50;99.90;;;;;;5031678;28;20710;-55
2022/08/07 02:53:33;;;;;;;6.13;5.47;;;12.50;99.90;;;;;;5028176;28;20315;-54
2022/08/07 02:56:13;;;;;;;6.70;6.00;;;12.50;99.90;;;;;;5014361;28;20224;-55
2022/08/07 02:58:52;;;;;;;6.70;6.00;;;12.40;99.90;;;;;;5029410;28;20235;-55
2022/08/07 03:01:24;;;;;;;7.23;6.53;;;12.40;99.90;;;;;;5033700;28;20270;-54
2022/08/07 03:04:07;;;;;;;7.40;6.33;;;12.40;99.90;;;;;;5034148;28;20279;-55
2022/08/07 03:06:43;;;;;;;7.13;6.30;;;12.40;99.90;;;;;;5033978;28;20257;-55
2022/08/07 03:09:18;;;;;;;9.13;7.07;;;12.40;99.90;;;;;;5034192;28;20593;-55
2022/08/07 03:12:10;;;;;;;7.70;6.90;;;12.40;99.90;;;;;;5035016;28;20246;-55
2022/08/07 03:14:56;;;;;;;8.10;7.10;;;12.30;99.90;;;;;;5033742;28;20227;-55
2022/08/07 03:17:30;;;;;;;8.60;7.53;;;12.40;99.90;;;;;;5035089;28;20323;-55
2022/08/07 03:20:07;;;;;;;9.10;6.70;;;12.40;99.90;;;;;;5033772;28;20368;-55
2022/08/07 03:22:37;;;;;;;8.10;7.20;;;12.40;99.90;;;;;;5033583;28;20651;-55
2022/08/07 03:25:07;;;;;;;7.70;6.87;;;12.30;99.90;;;;;;5015383;28;20221;-55
2022/08/07 03:27:43;;;;;;;8.53;7.00;;;12.30;99.90;;;;;;5024282;28;20608;-55
2022/08/07 03:30:30;;;;;;;8.77;6.43;;;12.30;99.90;;;;;;5034407;28;20220;-55
2022/08/07 03:33:00;;;;;;;7.90;6.60;;;12.30;99.90;;;;;;5033655;28;20232;-55
2022/08/07 03:35:33;;;;;;;10.17;7.00;;;12.20;99.90;;;;;;5034812;28;20710;-55
2022/08/07 03:38:19;;;;;;;11.30;7.20;;;12.20;99.90;;;;;;5033449;28;20243;-55
2022/08/07 03:40:50;;;;;;;8.07;6.77;;;12.20;99.90;;;;;;5033224;28;20581;-55
2022/08/07 03:43:26;;;;;;;9.53;7.00;;;12.20;99.90;;;;;;5027455;28;20229;-55
2022/08/07 03:46:04;;;;;;;9.57;6.80;;;12.20;99.90;;;;;;5032145;28;20235;-55
2022/08/07 03:48:49;;;;;;;9.67;7.70;;;12.20;99.90;;;;;;5032404;28;20591;-55
2022/08/07 03:51:34;;;;;;;8.43;7.00;;;12.10;99.90;;;;;;5033019;28;20588;-54
2022/08/07 03:54:23;;;;;;;7.23;6.17;;;12.20;99.90;;;;;;5019407;28;20244;-55
2022/08/07 03:57:07;;;;;;;9.60;6.50;;;12.20;99.90;;;;;;5013338;28;20238;-55
2022/08/07 03:59:37;;;;;;;6.67;5.97;;;12.20;99.90;;;;;;5015783;28;20769;-55
2022/08/07 04:02:27;;;;;;;7.00;6.30;;;12.20;99.90;;;;;;5012606;28;20263;-54
2022/08/07 04:04:57;;;;;;;6.80;5.60;;;12.10;99.90;;;;;;5015549;28;20232;-55
2022/08/07 04:07:26;;;;;;;6.73;6.03;;;12.10;99.90;;;;;;5029539;28;20232;-54
2022/08/07 04:10:09;;;;;;;9.13;6.00;;;12.10;99.90;;;;;;5013131;28;20597;-55
2022/08/07 04:12:48;;;;;;;7.37;6.30;;;12.10;99.90;;;;;;5031405;28;20704;-55
2022/08/07 04:15:18;;;;;;;7.53;6.67;;;12.10;99.90;;;;;;5032797;28;20774;-55
2022/08/07 04:17:52;;;;;;;7.90;6.90;;;12.20;99.90;;;;;;5033956;28;20322;-55
2022/08/07 04:20:42;;;;;;;8.67;7.77;;;12.20;99.90;;;;;;5032426;28;20599;-55
2022/08/07 04:23:24;;;;;;;9.10;7.13;;;12.20;99.90;;;;;;5047258;28;20282;-55
2022/08/07 04:26:11;;;;;;;8.63;7.57;;;12.30;99.90;;;;;;5024866;28;20239;-55
2022/08/07 04:28:44;;;;;;;9.03;7.70;;;12.40;99.90;;;;;;5032333;28;20691;-55
2022/08/07 04:31:13;;;;;;;9.07;7.50;;;12.40;99.90;;;;;;5031745;28;20285;-55
2022/08/07 04:34:03;;;;;;;8.83;7.43;;;12.50;99.90;;;;;;5030897;28;20220;-55
2022/08/07 04:36:44;;;;;;;10.10;8.30;;;12.60;99.90;;;;;;5031258;28;20232;-54
2022/08/07 04:39:17;;;;;;;10.90;7.93;;;12.60;99.90;;;;;;5031672;28;20264;-55
2022/08/07 04:41:53;;;;;;;10.43;8.33;;;12.80;99.90;;;;;;5031787;28;20731;-55
2022/08/07 04:44:21;;;;;;;10.57;8.30;;;12.90;99.90;;;;;;5024044;28;20259;-55
2022/08/07 04:46:59;;;;;;;10.17;7.87;;;12.90;99.90;;;;;;5033392;28;20247;-55
2022/08/07 04:49:49;;;;;;;9.63;8.53;;;12.90;99.90;;;;;;5032400;28;20762;-55
2022/08/07 04:52:43;;;;;;;9.07;7.90;;;13.10;99.90;;;;;;5031992;28;20289;-55
2022/08/07 04:55:25;;;;;;;10.20;8.77;;;13.20;99.90;;;;;;5042068;28;20675;-55
2022/08/07 04:58:22;;;;;;;11.57;9.33;;;13.30;99.90;;;;;;5031942;28;20249;-55
2022/08/07 05:01:17;;;;;;;10.97;8.90;;;13.40;99.90;;;;;;5030511;28;20707;-55
2022/08/07 05:03:52;;;;;;;11.10;8.70;;;13.40;99.90;;;;;;5031469;28;20249;-55
2022/08/07 05:06:49;;;;;;;10.27;8.90;;;13.60;99.90;;;;;;5031532;28;20322;-56
2022/08/07 05:09:27;;;;;;;10.90;9.03;;;13.80;99.90;;;;;;5031260;28;20235;-55
2022/08/07 05:12:19;;;;;;;10.53;9.37;;;14.00;99.90;;;;;;5027903;28;20276;-55
2022/08/07 05:15:14;;;;;;;10.97;9.10;;;14.10;99.90;;;;;;5025124;28;20235;-56
2022/08/07 05:17:59;;;;;;;12.23;9.07;;;14.20;99.90;;;;;;5029601;28;20700;-55
2022/08/07 05:20:38;;;;;;;11.97;9.77;;;14.30;99.90;;;;;;5026859;28;20278;-55
2022/08/07 05:23:12;;;;;;;11.70;9.93;;;14.40;99.90;;;;;;5030850;28;20700;-55
2022/08/07 05:25:48;;;;;;;11.70;9.57;;;14.60;99.90;;;;;;5024994;28;20220;-56
2022/08/07 05:28:38;;;;;;;11.47;9.73;;;14.80;99.90;;;;;;5030842;28;20307;-55
2022/08/07 05:31:12;;;;;;;11.50;9.57;;;15.00;99.90;;;;;;5032603;28;20684;-55
2022/08/07 05:33:45;;;;;;;11.47;9.97;;;15.10;99.90;;;;;;5031599;28;20238;-55
2022/08/07 05:36:33;;;;;;;11.57;10.37;;;15.10;99.90;;;;;;5031269;28;20620;-54
2022/08/07 05:39:07;;;;;;;10.93;9.23;;;15.20;99.90;;;;;;5027572;28;20252;-55
2022/08/07 05:42:00;;;;;;;11.17;9.93;;;15.30;99.90;;;;;;5018006;28;20307;-55
2022/08/07 05:44:38;;;;;;;11.87;9.87;;;15.40;99.90;;;;;;5031117;28;20675;-55
2022/08/07 05:47:18;;;;;;;11.50;9.97;;;15.60;99.90;;;;;;5031463;28;20323;-55
2022/08/07 05:49:52;;;;;;;11.50;9.60;;;15.60;99.90;;;;;;5028009;28;20255;-54
2022/08/07 05:52:23;;;;;;;13.63;10.10;;;15.70;99.90;;;;;;5029984;28;20229;-55
2022/08/07 05:55:03;;;;;;;11.63;10.07;;;15.90;99.90;;;;;;5027881;28;20232;-55
2022/08/07 05:57:43;;;;;;;10.77;9.57;;;16.00;99.90;;;;;;5011257;28;20611;-55
2022/08/07 06:00:13;;;;;;;11.90;10.67;;;16.30;99.90;;;;;;5014947;28;20279;-55
2022/08/07 06:02:52;;;;;;;11.43;9.70;;;16.50;99.90;;;;;;5031322;28;20232;-55
2022/08/07 06:05:25;;;;;;;10.40;9.27;;;16.50;99.90;;;;;;5030970;28;20228;-56
2022/08/07 06:08:00;;;;;;;11.53;9.37;;;16.60;99.90;;;;;;5030784;28;20716;-55
2022/08/07 06:10:50;;;;;;;11.67;8.97;;;16.80;99.90;;;;;;5031199;28;20308;-55
2022/08/07 06:13:23;;;;;;;11.87;9.37;;;16.80;99.90;;;;;;5031110;28;20232;-56
2022/08/07 06:16:14;;;;;;;11.53;9.47;;;16.90;99.90;;;;;;5033364;28;20224;-55
2022/08/07 06:18:45;;;;;;;9.43;8.13;;;17.00;99.90;;;;;;5025145;28;20310;-55
2022/08/07 06:21:23;;;;;;;9.50;8.10;;;17.00;99.90;;;;;;5031630;28;20253;-54
2022/08/07 06:24:12;;;;;;;8.87;7.50;;;17.20;99.90;;;;;;5030910;28;20303;-53
2022/08/07 06:27:02;;;;;;;9.50;7.93;;;17.50;99.90;;;;;;5034593;28;20338;-55
2022/08/07 06:29:32;;;;;;;9.80;7.80;;;17.70;99.90;;;;;;5034974;28;20270;-54
2022/08/07 06:32:01;;;;;;;8.23;7.43;;;18.00;99.90;;;;;;5032599;28;20225;-55
2022/08/07 06:34:32;;;;;;;11.60;8.20;;;18.10;99.90;;;;;;5028407;28;20221;-56
2022/08/07 06:37:00;;;;;;;10.60;8.20;;;18.30;99.90;;;;;;5037570;28;20227;-63
2022/08/07 06:39:32;;;;;;;8.20;7.10;;;18.50;99.90;;;;;;5035210;28;20214;-57
2022/08/07 06:42:26;;;;;;;10.87;7.07;;;18.80;99.90;;;;;;5027708;28;20229;-64
2022/08/07 06:45:14;;;;;;;8.07;7.07;;;19.00;99.90;;;;;;5031252;28;20332;-64
2022/08/07 06:47:50;;;;;;;6.87;5.80;;;19.30;99.90;;;;;;5032131;28;20241;-61
2022/08/07 06:50:27;;;;;;;7.40;6.70;;;19.40;99.90;;;;;;5044082;28;20215;-58
2022/08/07 06:53:00;;;;;;;8.97;6.83;;;19.60;99.90;;;;;;5036883;28;20321;-58
2022/08/07 06:55:33;;;;;;;6.27;5.67;;;19.80;99.90;;;;;;5037304;28;20224;-65
2022/08/07 06:58:25;;;;;;;7.93;5.80;;;20.10;99.90;;;;;;5042541;28;20230;-59
2022/08/07 07:01:08;;;;;;;8.20;5.60;;;20.20;99.90;;;;;;5027233;28;20285;-70
2022/08/07 07:03:39;;;;;;;6.33;5.73;;;20.20;99.90;;;;;;5043498;28;20227;-65
2022/08/07 07:06:24;;;;;;;7.00;6.20;;;20.30;99.90;;;;;;5043161;28;20227;-62
2022/08/07 07:08:54;;;;;;;8.27;6.07;;;20.50;99.90;;;;;;5043519;28;20216;-74
2022/08/07 07:11:25;;;;;;;5.90;5.30;;;20.80;99.90;;;;;;5041788;28;20282;-64
2022/08/07 07:14:16;;;;;;;6.23;5.40;;;20.90;99.90;;;;;;5041509;28;20223;-61
2022/08/07 07:16:46;;;;;;;6.77;5.47;;;20.90;99.90;;;;;;5040544;28;20680;-63
2022/08/07 07:19:25;;;;;;;8.13;6.27;;;21.10;99.90;;;;;;5040718;28;20250;-64
2022/08/07 07:22:15;;;;;;;6.37;5.77;;;21.10;99.90;;;;;;5043588;28;20232;-55
2022/08/07 07:25:06;;;;;;;7.50;5.50;;;21.30;99.90;;;;;;5043981;28;20748;-65
2022/08/07 07:27:58;;;;;;;6.63;5.40;;;21.50;99.90;;;;;;5036518;28;20680;-55
2022/08/07 07:30:38;;;;;;;6.40;5.70;;;21.70;99.90;;;;;;5035090;28;20228;-56
2022/08/07 07:33:10;;;;;;;6.03;5.43;;;21.80;99.90;;;;;;5035932;28;20228;-55
2022/08/07 07:35:41;;;;;;;6.03;5.07;;;22.00;99.90;;;;;;5035118;28;20787;-55
2022/08/07 07:38:32;;;;;;;7.67;5.37;;;22.20;99.90;;;;;;5034535;28;20256;-54
2022/08/07 07:41:05;;;;;;;6.67;5.43;;;22.50;99.90;;;;;;5034350;28;20582;-55
2022/08/07 07:43:40;;;;;;;6.63;5.20;;;22.60;99.90;;;;;;5031570;28;20226;-55
2022/08/07 07:46:32;;;;;;;6.73;5.20;;;22.80;99.90;;;;;;5031146;28;20262;-55
2022/08/07 07:49:07;;;;;;;6.50;5.27;;;23.00;99.90;;;;;;5033562;28;20692;-55
2022/08/07 07:51:57;;;;;;;7.23;5.10;;;23.30;99.90;;;;;;5033638;28;20689;-55
2022/08/07 07:54:28;;;;;;;5.80;5.23;;;23.30;99.90;;;;;;5033632;28;20231;-54
2022/08/07 07:56:57;;;;;;;5.97;4.93;;;23.40;99.90;;;;;;5033098;28;20258;-55
2022/08/07 07:59:30;;;;;;;5.43;4.77;;;23.60;99.90;;;;;;5032825;28;20221;-55
2022/08/07 08:02:23;;;;;;;4.80;4.33;;;23.60;99.90;;;;;;5021985;28;20229;-55
2022/08/07 08:05:04;;;;;;;6.40;5.00;;;23.80;99.90;;;;;;5032756;28;20233;-55
2022/08/07 08:07:42;;;;;;;5.83;4.50;;;23.90;99.90;;;;;;5034050;28;20592;-55
2022/08/07 08:10:30;;;;;;;5.23;4.80;;;24.00;99.90;;;;;;5033326;28;20229;-54
2022/08/07 08:13:07;;;;;;;5.50;5.00;;;24.40;99.90;;;;;;5026803;28;20256;-56
2022/08/07 08:15:46;;;;;;;6.20;5.10;;;24.40;99.90;;;;;;5027831;28;20229;-55
2022/08/07 08:18:31;;;;;;;5.50;4.83;;;24.50;99.90;;;;;;5031516;28;20585;-55
2022/08/07 08:21:01;;;;;;;5.37;4.63;;;24.70;99.90;;;;;;5029821;28;20328;-55
2022/08/07 08:29:05;;;;;;;4.97;4.57;;;24.80;99.90;;;;;;5018338;28;20261;-55
2022/08/07 08:31:38;;;;;;;5.90;4.50;;;25.00;99.90;;;;;;5018015;28;20574;-55
2022/08/07 08:34:38;;;;;;;4.87;4.37;;;25.10;99.90;;;;;;5018122;28;20228;-55
2022/08/07 08:37:14;;;;;;;5.33;4.43;;;25.20;99.90;;;;;;5021378;28;20321;-55
2022/08/07 08:40:05;;;;;;;4.17;3.87;;;25.40;99.90;;;;;;5021161;28;20593;-55
2022/08/07 08:42:44;;;;;;;5.40;4.33;;;25.50;99.90;;;;;;5020353;28;20236;-55
2022/08/07 08:45:22;;;;;;;5.17;4.30;;;25.70;99.90;;;;;;5019155;28;20230;-54
2022/08/07 08:48:19;;;;;;;5.87;4.43;;;25.70;99.90;;;;;;5020726;28;20808;-55
2022/08/07 08:50:55;;;;;;;4.93;4.37;;;25.80;99.90;;;;;;5018194;28;20222;-55
2022/08/07 08:53:32;;;;;;;5.43;4.70;;;25.80;99.90;;;;;;5014458;28;20236;-55
2022/08/07 08:56:06;;;;;;;4.80;4.30;;;25.90;99.90;;;;;;5018083;28;20231;-55
2022/08/07 08:58:43;;;;;;;5.17;3.87;;;25.90;99.90;;;;;;5018020;28;21367;-54
2022/08/07 09:01:14;;;;;;;3.90;3.50;;;26.20;99.90;;;;;;5017622;28;20262;-55
2022/08/07 09:03:58;;;;;;;4.83;4.07;;;26.30;99.90;;;;;;5015193;28;20253;-55
2022/08/07 09:06:53;;;;;;;4.57;3.93;;;26.60;99.90;;;;;;5017676;28;20297;-55
2022/08/07 09:09:48;;;;;;;4.17;3.60;;;26.40;99.90;;;;;;5018343;28;20553;-55
2022/08/07 09:12:38;;;;;;;4.70;3.80;;;26.60;99.90;;;;;;5027817;28;20231;-56
2022/08/07 09:15:22;;;;;;;4.00;3.60;;;26.70;99.90;;;;;;5031455;28;20256;-55
2022/08/07 09:18:33;;;;;;;5.00;4.10;;;26.80;99.90;;;;;;5031679;28;20224;-56
2022/08/07 09:21:11;;;;;;;4.83;3.73;;;26.90;99.90;;;;;;5032217;28;20243;-55
2022/08/07 09:24:07;;;;;;;6.03;3.60;;;26.70;99.90;;;;;;5031308;28;20231;-56
2022/08/07 09:27:04;;;;;;;3.73;3.40;;;26.70;99.90;;;;;;5030555;28;20710;-55
2022/08/07 09:29:57;;;;;;;3.90;3.50;;;26.80;99.90;;;;;;5033200;28;20232;-55
2022/08/07 09:32:53;;;;;;;6.00;3.80;;;26.90;99.90;;;;;;5032151;28;20298;-55
2022/08/07 09:35:40;;;;;;;5.37;3.90;;;27.10;99.90;;;;;;5032503;28;20730;-55
2022/08/07 09:38:42;;;;;;;5.93;4.90;;;27.10;99.80;;;;;;5032538;28;20587;-55
2022/08/07 09:41:30;;;;;;;5.20;4.23;;;27.20;99.90;;;;;;5032581;28;20650;-55
2022/08/07 09:44:30;;;;;;;5.27;3.73;;;26.80;99.90;;;;;;5026109;28;20296;-55
2022/08/07 09:47:31;;;;;;;4.77;3.37;;;26.70;99.90;;;;;;5035590;28;20319;-55
2022/08/07 09:50:31;;;;;;;4.77;4.13;;;27.00;99.90;;;;;;5036728;28;20231;-55
2022/08/07 09:53:01;;;;;;;4.03;3.70;;;27.30;99.90;;;;;;5032402;28;20326;-55
2022/08/07 09:55:47;;;;;;;4.37;3.90;;;27.00;99.90;;;;;;5025255;28;20300;-55
2022/08/07 09:59:00;;;;;;;5.00;3.57;;;27.30;99.90;;;;;;5025550;28;20573;-55
2022/08/07 10:01:53;;;;;;;4.30;3.90;;;28.00;99.90;;;;;;5035810;28;20236;-55
2022/08/07 10:04:57;;;;;;;4.63;3.60;;;28.10;99.90;;;;;;5036283;28;20620;-55
2022/08/07 10:07:48;;;;;;;4.30;3.90;;;28.10;98.20;;;;;;5011046;28;20259;-54
2022/08/07 10:10:37;;;;;;;6.20;3.80;;;28.00;98.70;;;;;;5036081;28;20251;-55
2022/08/07 10:13:44;;;;;;;4.33;3.70;;;27.30;99.50;;;;;;5035048;28;20293;-54
2022/08/07 10:16:49;;;;;;;4.30;3.90;;;26.30;99.90;;;;;;5025847;28;20235;-54
2022/08/07 10:19:35;;;;;;;4.27;3.40;;;26.20;99.90;;;;;;5034984;28;20298;-54
2022/08/07 10:22:28;;;;;;;3.87;3.57;;;25.90;99.90;;;;;;5035761;28;20239;-55
2022/08/07 10:25:35;;;;;;;5.30;4.00;;;25.40;99.90;;;;;;5025327;28;20259;-54
2022/08/07 10:28:36;;;;;;;4.30;3.90;;;25.20;99.90;;;;;;5030431;28;20255;-54
2022/08/07 10:31:18;;;;;;;5.50;4.50;;;25.10;99.90;;;;;;5035577;28;20319;-54
2022/08/07 10:34:01;;;;;;;4.37;3.90;;;24.90;99.90;;;;;;5035702;28;20598;-55
2022/08/07 10:36:53;;;;;;;5.73;3.83;;;24.90;99.90;;;;;;5025081;28;20318;-54
2022/08/07 10:39:36;;;;;;;3.90;3.60;;;25.70;99.90;;;;;;5035499;28;20672;-54
2022/08/07 10:42:32;;;;;;;4.77;3.80;;;26.70;99.90;;;;;;5034886;28;20235;-54
2022/08/07 10:45:15;;;;;;;4.13;3.73;;;27.00;99.90;;;;;;5033172;28;20227;-55
2022/08/07 10:47:57;;;;;;;5.30;3.90;;;26.40;99.90;;;;;;5035407;28;20342;-54
2022/08/07 10:50:41;;;;;;;4.63;3.83;;;25.80;99.90;;;;;;5035707;28;20691;-54
2022/08/07 10:53:25;;;;;;;4.40;4.00;;;25.40;99.90;;;;;;5028214;28;20230;-54
2022/08/07 10:56:04;;;;;;;4.63;3.70;;;25.00;99.90;;;;;;5027182;28;20323;-55
2022/08/07 10:58:49;;;;;;;3.83;3.43;;;25.70;99.90;;;;;;5035263;28;20232;-55
2022/08/07 11:01:38;;;;;;;3.83;3.43;;;26.70;99.90;;;;;;5034937;28;20314;-54
2022/08/07 11:04:43;;;;;;;4.07;3.67;;;26.80;99.80;;;;;;5032722;28;20228;-54
2022/08/07 11:07:36;;;;;;;3.73;3.43;;;26.50;99.90;;;;;;5035280;28;20228;-55
2022/08/07 11:10:32;;;;;;;4.00;3.60;;;26.40;99.90;;;;;;5035068;28;20234;-54
2022/08/07 11:13:09;;;;;;;4.47;3.40;;;26.10;99.90;;;;;;5030329;28;20231;-55
2022/08/07 11:16:02;;;;;;;3.83;3.53;;;25.70;99.90;;;;;;5035401;28;20232;-54
2022/08/07 11:18:39;;;;;;;4.30;4.00;;;25.30;99.90;;;;;;5034953;28;20310;-55
2022/08/07 11:21:17;;;;;;;4.83;3.90;;;25.20;99.90;;;;;;5034505;28;20251;-55
2022/08/07 11:24:01;;;;;;;4.10;3.80;;;24.80;99.90;;;;;;5031843;28;20231;-55
2022/08/07 11:26:39;;;;;;;4.43;4.03;;;24.40;99.90;;;;;;5032010;28;20231;-54
2022/08/07 11:29:24;;;;;;;4.50;4.10;;;24.70;99.90;;;;;;5034888;28;20314;-55
2022/08/07 11:32:16;;;;;;;4.47;3.80;;;25.60;99.90;;;;;;5034174;28;20231;-55
2022/08/07 11:34:57;;;;;;;5.27;4.30;;;26.90;99.90;;;;;;5034847;28;20713;-55
2022/08/07 11:37:44;;;;;;;4.67;4.00;;;27.20;99.90;;;;;;5035000;28;20307;-54
2022/08/07 11:40:43;;;;;;;4.47;4.00;;;27.10;99.90;;;;;;5034744;28;20224;-54
2022/08/07 11:43:22;;;;;;;4.63;3.83;;;26.70;99.90;;;;;;5034476;28;20227;-55
2022/08/07 11:46:21;;;;;;;4.43;3.90;;;26.30;99.90;;;;;;5031749;28;20236;-54
2022/08/07 11:49:02;;;;;;;4.00;3.70;;;26.10;99.90;;;;;;5024697;28;20659;-55
2022/08/07 11:52:13;;;;;;;4.57;4.17;;;26.20;99.90;;;;;;5015036;28;20228;-55
2022/08/07 11:54:58;;;;;;;4.60;4.10;;;27.20;99.90;;;;;;5033331;28;20228;-55
2022/08/07 11:57:34;;;;;;;4.43;3.77;;;27.80;98.90;;;;;;5014897;28;20640;-55
2022/08/07 12:00:31;;;;;;;8.13;5.83;;;27.90;98.90;;;;;;5014322;28;20232;-55
2022/08/07 12:03:25;;;;;;;4.43;4.00;;;27.00;99.00;;;;;;5028773;28;20250;-55
2022/08/07 12:06:28;;;;;;;4.37;3.90;;;26.20;99.90;;;;;;5034305;28;20231;-54
2022/08/07 12:09:14;;;;;;;3.77;3.47;;;25.80;99.90;;;;;;5033193;28;20222;-55
2022/08/07 12:11:57;;;;;;;3.67;3.37;;;25.90;99.90;;;;;;5033803;28;20231;-55
2022/08/07 12:14:55;;;;;;;4.13;3.70;;;26.20;99.90;;;;;;5029812;28;20235;-54
2022/08/07 12:17:35;;;;;;;3.90;3.60;;;26.30;99.90;;;;;;5018574;28;20276;-54
2022/08/07 12:20:09;;;;;;;4.43;3.87;;;26.30;99.90;;;;;;5032854;28;20235;-54
2022/08/07 12:23:22;;;;;;;4.57;3.80;;;26.30;99.90;;;;;;5028828;28;20694;-55
2022/08/07 12:26:16;;;;;;;4.50;3.77;;;26.70;99.90;;;;;;5025536;28;20229;-55
2022/08/07 12:29:07;;;;;;;4.30;3.63;;;26.60;99.30;;;;;;5029339;28;20240;-55
2022/08/07 12:31:41;;;;;;;4.23;3.30;;;26.40;99.60;;;;;;5013612;28;20271;-54
2022/08/07 12:34:33;;;;;;;4.20;3.80;;;26.10;99.90;;;;;;5014302;28;20691;-55
2022/08/07 12:37:03;;;;;;;4.40;4.00;;;25.90;99.90;;;;;;5012585;28;20246;-54
2022/08/07 12:39:47;;;;;;;4.63;3.83;;;25.70;99.90;;;;;;5017495;28;20430;-55
2022/08/07 12:42:21;;;;;;;3.90;3.60;;;25.30;99.40;;;;;;5026834;28;20229;-54
2022/08/07 12:44:58;;;;;;;4.20;3.60;;;25.00;99.90;;;;;;5032145;28;20227;-55
2022/08/07 12:47:38;;;;;;;4.30;3.90;;;24.80;99.90;;;;;;5033486;28;20583;-54
2022/08/07 12:50:18;;;;;;;4.93;3.60;;;24.80;99.90;;;;;;5033254;28;20231;-55
2022/08/07 12:53:14;;;;;;;4.60;4.10;;;24.90;99.90;;;;;;5031690;28;20225;-54
2022/08/07 12:55:53;;;;;;;4.13;3.80;;;25.00;99.90;;;;;;5027926;28;21819;-55
2022/08/07 12:58:37;;;;;;;3.93;3.40;;;25.00;99.90;;;;;;5032200;28;20238;-55
2022/08/07 13:01:15;;;;;;;4.03;3.63;;;24.90;99.90;;;;;;5032630;28;20647;-55
2022/08/07 13:04:00;;;;;;;4.37;3.97;;;24.80;99.90;;;;;;5031263;28;20280;-54
2022/08/07 13:06:59;;;;;;;3.90;3.50;;;24.60;99.90;;;;;;5032390;28;20237;-55
2022/08/07 13:09:53;;;;;;;4.60;3.80;;;24.50;99.90;;;;;;5023823;28;20292;-55
2022/08/07 13:13:06;;;;;;;4.03;3.70;;;24.60;99.90;;;;;;5018195;28;20728;-55
2022/08/07 13:15:42;;;;;;;4.43;3.63;;;24.80;99.90;;;;;;5018578;28;20250;-54
2022/08/07 13:18:21;;;;;;;4.33;3.80;;;24.80;99.90;;;;;;5018915;28;20337;-54
2022/08/07 13:21:04;;;;;;;3.93;3.63;;;24.80;99.90;;;;;;5014523;28;20241;-54
2022/08/07 13:23:45;;;;;;;4.07;3.67;;;24.80;99.90;;;;;;5018533;28;20719;-54
2022/08/07 13:26:39;;;;;;;3.83;3.53;;;24.80;99.90;;;;;;5018565;28;20236;-54
2022/08/07 13:29:18;;;;;;;3.30;3.00;;;24.90;99.90;;;;;;5015640;28;20577;-54
2022/08/07 13:31:52;;;;;;;4.17;3.77;;;25.00;99.90;;;;;;5017513;28;20250;-55
2022/08/07 13:34:37;;;;;;;4.33;3.37;;;25.00;99.90;;;;;;5018114;28;20222;-53
2022/08/07 13:37:14;;;;;;;3.83;3.40;;;25.00;99.90;;;;;;5016842;28;20229;-54
2022/08/07 13:40:02;;;;;;;4.93;3.77;;;24.90;99.90;;;;;;5014871;28;20246;-55
2022/08/07 13:42:52;;;;;;;3.97;3.57;;;24.90;99.90;;;;;;5018674;28;20236;-54
2022/08/07 13:45:22;;;;;;;3.77;3.47;;;25.00;99.90;;;;;;5019113;28;20237;-54
2022/08/07 13:48:12;;;;;;;4.33;3.93;;;24.80;99.90;;;;;;5017302;28;20894;-54
2022/08/07 13:50:59;;;;;;;4.27;3.53;;;24.70;99.70;;;;;;5015566;28;20237;-54
2022/08/07 13:53:53;;;;;;;4.00;3.70;;;24.50;99.90;;;;;;5018172;28;20221;-54
2022/08/07 13:56:29;;;;;;;4.70;3.73;;;24.50;99.90;;;;;;5018153;28;20229;-54
2022/08/07 13:59:12;;;;;;;3.53;3.23;;;24.50;99.90;;;;;;5014592;28;21236;-54
2022/08/07 14:01:49;;;;;;;3.90;3.50;;;24.60;99.90;;;;;;5017315;28;20237;-54
2022/08/07 14:04:37;;;;;;;4.60;3.60;;;24.50;99.90;;;;;;5027160;28;20232;-54
2022/08/07 14:07:20;;;;;;;3.70;3.40;;;24.30;99.90;;;;;;5030019;28;20711;-54